Time;durP1;ratioP1;P1;durP2;ratioP2;P2;SDS_P1;SDS_P2;PMS_P1;PMS_P2;Temp;Humidity;BMP_temperature;BMP_pressure;BME280_temperature;BME280_humidity;BME280_pressure;Samples;Min_cycle;Max_cycle;Signal;HPM_P1;HPM_P2
2022/01/06 00:00:11;;;;;;;29.85;22.38;;;5.80;93.40;;;;;;6183663;23;20008;-66
2022/01/06 00:02:36;;;;;;;29.88;22.35;;;5.70;93.40;;;;;;6183478;23;20004;-66
2022/01/06 00:05:03;;;;;;;26.33;20.80;;;5.70;93.50;;;;;;6183799;23;20005;-67
2022/01/06 00:07:30;;;;;;;29.48;20.83;;;5.70;93.60;;;;;;6183949;23;20413;-67
2022/01/06 00:09:55;;;;;;;26.95;20.80;;;5.70;93.60;;;;;;6184052;23;20001;-67
2022/01/06 00:12:27;;;;;;;26.98;20.40;;;5.70;93.40;;;;;;6157822;23;20523;-66
2022/01/06 00:15:26;;;;;;;27.58;20.23;;;5.70;93.50;;;;;;6183871;23;20005;-67
2022/01/06 00:23:33;;;;;;;26.27;20.65;;;5.60;93.60;;;;;;6183524;23;20083;-66
2022/01/06 00:26:00;;;;;;;26.65;20.02;;;5.60;93.60;;;;;;6183767;23;20320;-66
2022/01/06 00:28:27;;;;;;;26.80;20.60;;;5.60;93.70;;;;;;6183655;23;20413;-67
2022/01/06 00:30:53;;;;;;;27.45;21.30;;;5.50;93.70;;;;;;6183668;23;20001;-67
2022/01/06 00:33:18;;;;;;;27.48;20.40;;;5.50;93.70;;;;;;6188203;23;20381;-66
2022/01/06 00:35:44;;;;;;;27.95;20.90;;;5.50;93.80;;;;;;6213761;23;20083;-66
2022/01/06 00:38:10;;;;;;;25.70;19.90;;;5.40;93.90;;;;;;6212201;23;20040;-67
2022/01/06 00:40:37;;;;;;;27.33;20.38;;;5.40;93.90;;;;;;6213754;23;20000;-65
2022/01/06 00:43:04;;;;;;;28.35;20.13;;;5.40;94.00;;;;;;6213736;23;20005;-67
2022/01/06 00:45:30;;;;;;;26.83;20.70;;;5.50;94.10;;;;;;6213759;23;19996;-67
2022/01/06 00:47:56;;;;;;;26.52;19.77;;;5.50;93.90;;;;;;6213686;23;20055;-66
2022/01/06 00:50:22;;;;;;;26.13;19.25;;;5.50;93.90;;;;;;6213709;23;20417;-66
2022/01/06 00:52:48;;;;;;;26.15;19.55;;;5.50;94.00;;;;;;6213667;23;20428;-65
2022/01/06 00:55:14;;;;;;;26.38;19.67;;;5.40;94.10;;;;;;6213625;23;20030;-66
2022/01/06 00:57:40;;;;;;;26.65;18.45;;;5.50;94.10;;;;;;6213600;23;20000;-67
2022/01/06 01:00:07;;;;;;;25.90;19.42;;;5.50;94.10;;;;;;6213430;23;20005;-67
2022/01/06 01:02:33;;;;;;;25.60;19.65;;;5.50;94.10;;;;;;6213693;23;20007;-67
2022/01/06 01:04:58;;;;;;;24.98;19.08;;;5.50;94.20;;;;;;6214074;23;20004;-67
2022/01/06 01:07:24;;;;;;;24.70;19.23;;;5.50;94.10;;;;;;6215444;23;20432;-66
2022/01/06 01:09:50;;;;;;;25.98;19.35;;;5.60;94.10;;;;;;6215433;23;19997;-66
2022/01/06 01:12:15;;;;;;;28.23;20.83;;;5.60;94.10;;;;;;6215641;23;20004;-67
2022/01/06 01:14:57;;;;;;;26.90;20.33;;;5.60;94.00;;;;;;6215482;23;20004;-66
2022/01/06 01:17:25;;;;;;;26.33;18.98;;;5.70;94.00;;;;;;6215415;23;20148;-67
2022/01/06 01:19:52;;;;;;;23.60;17.55;;;5.70;94.00;;;;;;6215224;23;20004;-67
2022/01/06 01:22:18;;;;;;;24.60;18.73;;;5.70;93.90;;;;;;6215247;23;20047;-66
2022/01/06 01:24:44;;;;;;;24.27;18.05;;;5.70;93.80;;;;;;6215204;23;20332;-67
2022/01/06 01:27:10;;;;;;;26.27;19.08;;;5.70;93.80;;;;;;6215136;23;19997;-67
2022/01/06 01:29:45;;;;;;;25.27;19.00;;;5.70;93.70;;;;;;6215212;23;20004;-66
2022/01/06 01:32:10;;;;;;;24.73;18.50;;;5.70;93.70;;;;;;6211456;23;20384;-66
2022/01/06 01:34:38;;;;;;;24.85;17.90;;;5.70;93.70;;;;;;6185241;23;20009;-69
2022/01/06 01:37:04;;;;;;;23.73;17.63;;;5.70;93.60;;;;;;6159089;23;20019;-66
2022/01/06 01:39:31;;;;;;;22.77;17.27;;;5.70;93.70;;;;;;6185642;23;20452;-67
2022/01/06 01:41:57;;;;;;;23.77;17.67;;;5.70;93.70;;;;;;6185059;23;20080;-68
2022/01/06 01:44:23;;;;;;;24.92;17.10;;;5.70;93.70;;;;;;6184901;23;20032;-66
2022/01/06 01:47:00;;;;;;;22.65;16.70;;;5.60;93.70;;;;;;6184996;23;20084;-66
2022/01/06 01:51:54;;;;;;;23.10;17.67;;;5.70;93.70;;;;;;6195059;23;20033;-66
2022/01/06 01:54:19;;;;;;;23.42;17.73;;;5.60;93.70;;;;;;6184788;23;20009;-67
2022/01/06 01:56:45;;;;;;;22.42;17.13;;;5.60;93.70;;;;;;6184955;23;20435;-70
2022/01/06 01:59:13;;;;;;;25.90;18.38;;;5.60;93.70;;;;;;6184964;23;20011;-67
2022/01/06 02:01:39;;;;;;;26.27;19.20;;;5.60;93.70;;;;;;6158358;23;20059;-68
2022/01/06 02:04:05;;;;;;;26.88;19.45;;;5.50;93.70;;;;;;6184786;23;20063;-68
2022/01/06 02:06:31;;;;;;;27.08;20.25;;;5.50;93.70;;;;;;6158608;23;20361;-69
2022/01/06 02:08:56;;;;;;;25.83;18.90;;;5.50;93.80;;;;;;6184889;23;19997;-71
2022/01/06 02:11:22;;;;;;;24.40;18.55;;;5.50;93.80;;;;;;6185040;23;20522;-66
2022/01/06 02:13:50;;;;;;;24.98;18.50;;;5.40;93.80;;;;;;6185443;23;20005;-68
2022/01/06 02:16:20;;;;;;;26.60;18.60;;;5.40;93.80;;;;;;6185059;23;20008;-66
2022/01/06 02:18:48;;;;;;;27.15;19.70;;;5.40;93.70;;;;;;6184719;23;20008;-66
2022/01/06 02:21:14;;;;;;;25.40;18.35;;;5.40;93.70;;;;;;6184529;23;20065;-66
2022/01/06 02:23:39;;;;;;;25.85;19.15;;;5.40;93.70;;;;;;6184529;23;20005;-67
2022/01/06 02:26:05;;;;;;;26.85;19.80;;;5.30;93.70;;;;;;6184636;23;20005;-68
2022/01/06 02:28:31;;;;;;;28.27;20.58;;;5.20;93.70;;;;;;6184927;23;20526;-68
2022/01/06 02:30:58;;;;;;;29.60;21.42;;;5.10;93.80;;;;;;6185038;23;19997;-69
2022/01/06 02:33:24;;;;;;;28.75;20.85;;;5.10;93.90;;;;;;6184528;23;20017;-67
2022/01/06 02:35:51;;;;;;;28.52;20.33;;;5.10;94.00;;;;;;6184518;23;20417;-68
2022/01/06 02:38:18;;;;;;;27.35;19.88;;;5.00;94.20;;;;;;6184436;23;20028;-67
2022/01/06 02:40:45;;;;;;;28.65;20.75;;;4.90;94.30;;;;;;6184521;23;20005;-68
2022/01/06 02:43:13;;;;;;;26.95;19.73;;;4.90;94.50;;;;;;6184362;23;20028;-66
2022/01/06 02:45:39;;;;;;;28.40;19.83;;;4.90;94.50;;;;;;6185272;23;19997;-66
2022/01/06 02:48:08;;;;;;;26.45;18.92;;;4.90;94.70;;;;;;6184319;23;20035;-67
2022/01/06 02:50:41;;;;;;;24.88;18.40;;;4.90;94.70;;;;;;6184728;23;20009;-67
2022/01/06 02:53:08;;;;;;;26.33;18.63;;;4.90;94.60;;;;;;6184301;23;19998;-67
2022/01/06 02:55:35;;;;;;;25.70;19.08;;;4.90;94.60;;;;;;6184372;23;20031;-68
2022/01/06 02:58:01;;;;;;;27.48;19.88;;;4.80;94.60;;;;;;6184280;23;20000;-66
2022/01/06 03:00:27;;;;;;;26.63;19.17;;;4.80;94.70;;;;;;6184227;23;20038;-67
2022/01/06 03:02:52;;;;;;;27.67;19.00;;;4.80;94.80;;;;;;6184224;23;20425;-67
2022/01/06 03:05:18;;;;;;;26.92;19.40;;;4.80;94.90;;;;;;6184026;23;20112;-68
2022/01/06 03:07:45;;;;;;;27.60;20.13;;;4.80;95.00;;;;;;6157867;23;20020;-65
2022/01/06 03:10:14;;;;;;;26.75;20.02;;;4.80;95.00;;;;;;6184511;23;20005;-66
2022/01/06 03:12:40;;;;;;;26.45;18.90;;;4.80;95.00;;;;;;6184271;23;20002;-66
2022/01/06 03:15:07;;;;;;;25.05;19.02;;;4.80;95.00;;;;;;6184049;23;20005;-66
2022/01/06 03:17:34;;;;;;;25.77;18.98;;;4.80;95.10;;;;;;6184144;23;20012;-66
2022/01/06 03:20:00;;;;;;;26.00;19.17;;;4.80;95.20;;;;;;6157610;23;20005;-67
2022/01/06 03:22:26;;;;;;;24.35;18.77;;;4.80;95.20;;;;;;6184076;23;20089;-67
2022/01/06 03:24:52;;;;;;;24.30;18.33;;;4.80;95.20;;;;;;6184330;23;20100;-66
2022/01/06 03:27:17;;;;;;;24.20;18.63;;;4.80;95.20;;;;;;6184544;23;20008;-66
2022/01/06 03:29:43;;;;;;;25.77;17.58;;;4.80;95.20;;;;;;6184078;23;20001;-66
2022/01/06 03:32:09;;;;;;;23.65;17.98;;;4.80;95.10;;;;;;6183885;23;20299;-66
2022/01/06 03:34:34;;;;;;;26.98;19.15;;;4.80;95.00;;;;;;6183874;23;20013;-67
2022/01/06 03:37:02;;;;;;;24.95;19.15;;;4.80;95.20;;;;;;6183957;23;20080;-66
2022/01/06 03:39:29;;;;;;;28.27;20.40;;;4.80;95.20;;;;;;6183848;23;20001;-66
2022/01/06 03:41:55;;;;;;;26.70;20.13;;;4.90;95.40;;;;;;6183884;23;20076;-66
2022/01/06 03:44:21;;;;;;;26.85;19.65;;;4.80;95.10;;;;;;6183656;23;20012;-66
2022/01/06 03:46:46;;;;;;;24.45;19.02;;;4.80;95.10;;;;;;6183809;23;20001;-66
2022/01/06 03:49:12;;;;;;;27.35;19.85;;;4.80;95.10;;;;;;6183934;23;20329;-66
2022/01/06 03:51:38;;;;;;;30.20;21.40;;;4.70;95.20;;;;;;6157493;23;20077;-67
2022/01/06 03:54:03;;;;;;;31.15;22.52;;;4.80;95.30;;;;;;6183954;23;20076;-67
2022/01/06 03:56:29;;;;;;;30.67;22.98;;;4.80;95.40;;;;;;6183840;23;20333;-67
2022/01/06 03:58:55;;;;;;;30.42;21.80;;;4.80;95.40;;;;;;6183701;23;20001;-67
2022/01/06 04:01:20;;;;;;;30.38;21.70;;;4.80;95.30;;;;;;6183606;23;20375;-67
2022/01/06 04:03:47;;;;;;;29.40;21.83;;;4.80;95.20;;;;;;6157595;23;20076;-66
2022/01/06 04:06:14;;;;;;;29.40;22.23;;;4.70;95.20;;;;;;6157366;23;20373;-66
2022/01/06 04:08:40;;;;;;;29.05;22.10;;;4.70;95.40;;;;;;6157605;23;20013;-66
2022/01/06 04:11:06;;;;;;;30.52;22.30;;;4.70;95.40;;;;;;6183788;23;20345;-66
2022/01/06 04:13:33;;;;;;;30.27;22.60;;;4.70;95.50;;;;;;6184043;23;20459;-66
2022/01/06 04:16:01;;;;;;;30.60;22.45;;;4.70;95.60;;;;;;6157589;23;20333;-67
2022/01/06 04:18:27;;;;;;;31.85;23.52;;;4.70;95.80;;;;;;6183809;23;20029;-67
2022/01/06 04:20:53;;;;;;;30.75;23.08;;;4.70;95.70;;;;;;6184010;23;20031;-67
2022/01/06 04:23:18;;;;;;;29.90;22.48;;;4.70;95.80;;;;;;6184197;23;20346;-67
2022/01/06 04:25:44;;;;;;;30.80;22.90;;;4.70;95.70;;;;;;6183623;23;20417;-66
2022/01/06 04:28:09;;;;;;;30.65;22.65;;;4.60;95.60;;;;;;6183511;23;20004;-67
2022/01/06 04:30:35;;;;;;;31.73;22.33;;;4.60;95.60;;;;;;6183714;23;20008;-67
2022/01/06 04:33:01;;;;;;;32.85;23.45;;;4.60;95.80;;;;;;6181193;23;20016;-66
2022/01/06 04:35:26;;;;;;;31.90;23.70;;;4.50;96.20;;;;;;6213600;23;20008;-66
2022/01/06 04:37:52;;;;;;;39.50;28.35;;;4.60;96.90;;;;;;6212097;23;20012;-67
2022/01/06 04:40:18;;;;;;;45.08;30.42;;;4.60;97.50;;;;;;6214473;23;20428;-66
2022/01/06 04:42:43;;;;;;;37.47;27.10;;;4.80;97.70;;;;;;6215505;23;20374;-67
2022/01/06 04:45:09;;;;;;;33.55;24.08;;;4.90;97.70;;;;;;6215215;23;20328;-66
2022/01/06 04:47:35;;;;;;;31.50;23.23;;;5.10;97.30;;;;;;6215418;23;20008;-66
2022/01/06 04:50:01;;;;;;;31.30;22.65;;;5.20;97.00;;;;;;6215469;23;19996;-66
2022/01/06 04:52:26;;;;;;;31.27;22.35;;;5.30;96.70;;;;;;6215308;23;20001;-66
2022/01/06 04:54:52;;;;;;;29.88;21.10;;;5.30;96.20;;;;;;6215484;23;20420;-66
2022/01/06 04:57:18;;;;;;;29.63;21.25;;;5.40;95.80;;;;;;6215303;23;20072;-67
2022/01/06 04:59:43;;;;;;;29.80;20.35;;;5.40;95.40;;;;;;6214167;23;20395;-65
2022/01/06 05:02:09;;;;;;;29.60;20.25;;;5.40;95.50;;;;;;6215584;23;20111;-66
2022/01/06 05:04:35;;;;;;;30.58;19.92;;;5.40;95.40;;;;;;6215028;23;20062;-66
2022/01/06 05:07:00;;;;;;;31.27;20.75;;;5.40;95.30;;;;;;6215139;23;20000;-66
2022/01/06 05:09:26;;;;;;;31.27;21.00;;;5.40;95.30;;;;;;6215267;23;20047;-67
2022/01/06 05:11:52;;;;;;;31.10;20.17;;;5.40;95.30;;;;;;6215072;23;20459;-66
2022/01/06 05:14:18;;;;;;;30.08;20.45;;;5.40;95.20;;;;;;6215140;23;20000;-66
2022/01/06 05:16:43;;;;;;;33.25;22.38;;;5.40;95.30;;;;;;6214848;23;20306;-65
2022/01/06 05:19:09;;;;;;;33.10;22.65;;;5.40;95.20;;;;;;6215052;23;20000;-67
2022/01/06 05:21:34;;;;;;;32.60;22.08;;;5.40;95.20;;;;;;6215000;23;20007;-66
2022/01/06 05:24:01;;;;;;;31.60;21.90;;;5.40;95.10;;;;;;6214919;23;20011;-67
2022/01/06 05:26:27;;;;;;;30.75;21.10;;;5.50;95.00;;;;;;6214994;23;19997;-67
2022/01/06 05:28:52;;;;;;;28.73;19.77;;;5.50;95.10;;;;;;6215034;23;20003;-67
2022/01/06 05:31:18;;;;;;;31.38;20.95;;;5.50;95.00;;;;;;6214636;23;20368;-65
2022/01/06 05:33:44;;;;;;;32.05;20.50;;;5.50;94.70;;;;;;6191132;23;20425;-68
2022/01/06 05:36:10;;;;;;;29.73;19.88;;;5.50;94.70;;;;;;6184941;23;20001;-67
2022/01/06 05:38:35;;;;;;;29.80;21.15;;;5.50;94.70;;;;;;6158491;23;20048;-66
2022/01/06 05:41:01;;;;;;;29.65;20.55;;;5.50;94.50;;;;;;6185199;23;20748;-67
2022/01/06 05:43:27;;;;;;;29.40;19.35;;;5.40;94.40;;;;;;6184743;23;20012;-68
2022/01/06 05:45:55;;;;;;;30.42;20.13;;;5.40;94.20;;;;;;6184644;23;20001;-66
2022/01/06 05:48:22;;;;;;;28.67;19.75;;;5.30;94.10;;;;;;6184686;23;20001;-66
2022/01/06 05:50:48;;;;;;;28.75;19.83;;;5.30;94.10;;;;;;6185286;23;19997;-67
2022/01/06 05:53:15;;;;;;;31.23;20.95;;;5.20;94.20;;;;;;6184735;23;20055;-67
2022/01/06 05:55:41;;;;;;;35.55;22.75;;;5.10;94.30;;;;;;6184629;23;20120;-67
2022/01/06 05:58:07;;;;;;;33.47;22.85;;;5.00;94.60;;;;;;6184661;23;20429;-67
2022/01/06 06:00:32;;;;;;;35.20;23.05;;;5.00;94.90;;;;;;6184618;23;20005;-67
2022/01/06 06:02:58;;;;;;;33.70;22.77;;;5.00;95.50;;;;;;6184631;23;20112;-70
2022/01/06 06:05:25;;;;;;;33.75;23.63;;;5.00;95.40;;;;;;6158154;23;20008;-66
2022/01/06 06:07:50;;;;;;;33.35;23.30;;;5.00;95.60;;;;;;6184652;23;20001;-66
2022/01/06 06:10:16;;;;;;;36.58;24.27;;;5.00;95.60;;;;;;6158764;23;20442;-66
2022/01/06 06:12:42;;;;;;;38.20;24.90;;;5.10;95.50;;;;;;6184372;23;20071;-66
2022/01/06 06:15:08;;;;;;;37.88;26.10;;;5.10;95.40;;;;;;6184377;23;20092;-66
2022/01/06 06:17:33;;;;;;;39.88;25.27;;;5.10;95.50;;;;;;6184584;23;20036;-66
2022/01/06 06:19:59;;;;;;;38.30;25.27;;;5.10;95.30;;;;;;6184346;23;20005;-66
2022/01/06 06:22:25;;;;;;;36.15;24.08;;;5.10;95.30;;;;;;6184398;23;20064;-67
2022/01/06 06:24:50;;;;;;;32.65;22.20;;;5.10;95.20;;;;;;6184425;23;20001;-66
2022/01/06 06:27:16;;;;;;;36.25;23.42;;;5.20;95.20;;;;;;6184441;23;20051;-69
2022/01/06 06:29:42;;;;;;;34.97;22.90;;;5.20;95.10;;;;;;6184537;23;20028;-67
2022/01/06 06:32:08;;;;;;;35.55;22.80;;;5.20;95.00;;;;;;6184582;23;20051;-67
2022/01/06 06:34:34;;;;;;;32.97;21.67;;;5.20;94.90;;;;;;6185054;23;20013;-68
2022/01/06 06:36:59;;;;;;;33.95;22.02;;;5.20;95.00;;;;;;6184858;23;20005;-67
2022/01/06 06:39:25;;;;;;;33.40;22.02;;;5.30;94.90;;;;;;6184556;23;20008;-67
2022/01/06 06:41:50;;;;;;;32.45;21.65;;;5.30;94.90;;;;;;6184150;23;20429;-67
2022/01/06 06:44:16;;;;;;;31.77;20.70;;;5.30;94.80;;;;;;6184272;23;20436;-66
2022/01/06 06:46:42;;;;;;;31.88;20.63;;;5.30;94.80;;;;;;6184201;23;19997;-67
2022/01/06 06:49:07;;;;;;;29.25;20.42;;;5.30;94.80;;;;;;6184264;23;20388;-67
2022/01/06 06:51:34;;;;;;;30.83;20.80;;;5.30;94.90;;;;;;6184123;23;20076;-67
2022/01/06 06:54:00;;;;;;;35.00;22.60;;;5.40;94.70;;;;;;6157706;23;20380;-66
2022/01/06 06:56:25;;;;;;;35.13;24.00;;;5.40;94.60;;;;;;6183701;23;20008;-66
2022/01/06 06:58:51;;;;;;;35.58;24.38;;;5.40;94.60;;;;;;6184080;23;20325;-67
2022/01/06 07:01:16;;;;;;;36.90;25.10;;;5.50;94.50;;;;;;6184148;23;20025;-67
2022/01/06 07:03:42;;;;;;;37.42;25.83;;;5.50;94.40;;;;;;6183564;23;20099;-67
2022/01/06 07:06:08;;;;;;;32.65;24.10;;;5.50;94.50;;;;;;6157749;23;20302;-68
2022/01/06 07:08:33;;;;;;;33.50;23.80;;;5.50;94.50;;;;;;6183895;23;20005;-66
2022/01/06 07:10:59;;;;;;;30.58;21.27;;;5.50;94.70;;;;;;6184239;23;20056;-67
2022/01/06 07:13:25;;;;;;;27.88;19.73;;;5.60;94.20;;;;;;6157953;23;20036;-67
2022/01/06 07:15:50;;;;;;;27.73;19.02;;;5.60;94.20;;;;;;6158247;23;20016;-67
2022/01/06 07:18:16;;;;;;;26.85;18.27;;;5.70;94.20;;;;;;6183813;23;20004;-66
2022/01/06 07:20:42;;;;;;;25.75;18.48;;;5.70;94.30;;;;;;6157553;23;20005;-67
2022/01/06 07:23:08;;;;;;;23.70;16.70;;;5.70;94.30;;;;;;6183965;23;20001;-67
2022/01/06 07:25:34;;;;;;;24.77;16.75;;;5.70;94.20;;;;;;6183440;23;20421;-66
2022/01/06 07:27:59;;;;;;;23.15;16.08;;;5.80;94.30;;;;;;6183734;23;20302;-67
2022/01/06 07:30:25;;;;;;;23.92;15.48;;;5.90;94.30;;;;;;6157580;23;20009;-66
2022/01/06 07:32:51;;;;;;;21.45;15.40;;;5.90;94.10;;;;;;6183535;23;20383;-67
2022/01/06 07:35:21;;;;;;;21.05;13.80;;;5.90;93.80;;;;;;6183873;23;20012;-67
2022/01/06 07:37:47;;;;;;;20.85;13.82;;;5.90;93.80;;;;;;6183672;23;20044;-67
2022/01/06 07:40:13;;;;;;;19.00;12.32;;;6.00;94.00;;;;;;6183904;23;20028;-67
2022/01/06 07:42:40;;;;;;;19.95;12.63;;;6.00;93.90;;;;;;6183692;23;20011;-67
2022/01/06 07:45:07;;;;;;;19.02;12.45;;;6.00;94.00;;;;;;6183783;23;20051;-67
2022/01/06 07:47:35;;;;;;;17.73;12.13;;;6.20;93.50;;;;;;6183649;23;20005;-67
2022/01/06 07:50:02;;;;;;;18.95;12.57;;;6.10;93.40;;;;;;6183604;23;20080;-67
2022/01/06 07:52:27;;;;;;;19.45;13.05;;;6.20;93.30;;;;;;6183760;23;20001;-68
2022/01/06 07:54:53;;;;;;;19.23;13.07;;;6.20;93.20;;;;;;6183587;23;20072;-68
2022/01/06 07:57:19;;;;;;;19.92;13.10;;;6.30;93.00;;;;;;6183761;23;20001;-67
2022/01/06 07:59:44;;;;;;;19.48;12.45;;;6.30;93.00;;;;;;6183717;23;20012;-67
2022/01/06 08:02:10;;;;;;;18.98;13.05;;;6.30;92.70;;;;;;6157377;23;20012;-67
2022/01/06 08:04:36;;;;;;;16.63;11.32;;;6.30;92.50;;;;;;6183629;23;20028;-67
2022/01/06 08:07:02;;;;;;;15.90;11.25;;;6.30;92.50;;;;;;6183565;23;19993;-67
2022/01/06 08:09:28;;;;;;;16.92;11.32;;;6.30;92.40;;;;;;6183489;23;20005;-68
2022/01/06 08:11:54;;;;;;;18.40;11.25;;;6.20;92.70;;;;;;6183534;23;20001;-67
2022/01/06 08:14:20;;;;;;;20.13;12.95;;;6.20;92.90;;;;;;6184894;23;20012;-67
2022/01/06 08:16:45;;;;;;;35.40;20.40;;;6.30;92.70;;;;;;6186309;23;20103;-67
2022/01/06 08:19:11;;;;;;;39.42;22.23;;;6.30;92.50;;;;;;6185501;23;20024;-67
2022/01/06 08:21:37;;;;;;;24.50;16.75;;;6.20;92.30;;;;;;6185493;23;20328;-67
2022/01/06 08:24:03;;;;;;;25.02;17.38;;;6.30;92.20;;;;;;6185355;23;20005;-67
2022/01/06 08:26:30;;;;;;;21.20;14.25;;;6.20;92.40;;;;;;6185417;23;20077;-67
2022/01/06 08:28:55;;;;;;;20.10;12.60;;;6.20;92.50;;;;;;6159115;23;20009;-66
2022/01/06 08:31:21;;;;;;;18.70;11.70;;;6.10;92.60;;;;;;6185452;23;20325;-67
2022/01/06 08:33:47;;;;;;;19.13;12.05;;;6.00;92.60;;;;;;6185427;23;20401;-68
2022/01/06 08:36:13;;;;;;;16.33;10.90;;;6.10;92.70;;;;;;6185410;23;20001;-67
2022/01/06 08:38:38;;;;;;;16.88;11.10;;;6.00;92.80;;;;;;6185380;23;20421;-68
2022/01/06 08:41:04;;;;;;;15.30;9.70;;;6.00;92.80;;;;;;6185477;23;20012;-68
2022/01/06 08:43:30;;;;;;;15.05;10.27;;;5.90;92.90;;;;;;6158997;23;20366;-66
2022/01/06 08:45:57;;;;;;;16.88;11.07;;;5.90;93.10;;;;;;6185154;23;20000;-67
2022/01/06 08:48:24;;;;;;;18.08;11.50;;;5.80;93.30;;;;;;6185444;23;20000;-66
2022/01/06 08:50:49;;;;;;;17.42;11.10;;;5.80;93.40;;;;;;6185358;23;20263;-67
2022/01/06 08:53:15;;;;;;;18.05;12.48;;;5.80;93.60;;;;;;6185351;23;20004;-67
2022/01/06 08:55:41;;;;;;;18.30;12.50;;;5.70;93.70;;;;;;6185412;23;19997;-66
2022/01/06 08:58:07;;;;;;;17.52;11.93;;;5.70;93.80;;;;;;6185342;23;19997;-66
2022/01/06 09:00:33;;;;;;;16.95;11.60;;;5.70;94.00;;;;;;6158840;23;20013;-64
2022/01/06 09:02:59;;;;;;;20.30;13.18;;;5.60;94.10;;;;;;6185608;23;20009;-70
2022/01/06 09:05:25;;;;;;;17.35;11.70;;;5.60;94.30;;;;;;6180232;23;20424;-69
2022/01/06 09:07:51;;;;;;;17.45;11.07;;;5.60;94.40;;;;;;6185077;23;20414;-68
2022/01/06 09:10:18;;;;;;;17.55;11.73;;;5.60;94.60;;;;;;6184700;23;20333;-67
2022/01/06 09:12:45;;;;;;;16.98;11.93;;;5.60;94.60;;;;;;6184635;23;20311;-68
2022/01/06 09:15:11;;;;;;;15.95;12.00;;;5.60;94.70;;;;;;6158894;23;20084;-71
2022/01/06 09:17:38;;;;;;;17.08;11.23;;;5.50;94.70;;;;;;6185013;23;20409;-68
2022/01/06 09:20:05;;;;;;;17.92;12.18;;;5.50;94.90;;;;;;6184872;23;20027;-66
2022/01/06 09:22:31;;;;;;;17.90;12.32;;;5.50;95.10;;;;;;6185190;23;20005;-66
2022/01/06 09:24:56;;;;;;;17.55;12.13;;;5.60;95.10;;;;;;6184624;23;20012;-68
2022/01/06 09:27:23;;;;;;;18.13;12.35;;;5.60;95.10;;;;;;6185166;23;20044;-66
2022/01/06 09:29:51;;;;;;;17.63;11.90;;;5.60;95.10;;;;;;6180169;23;20021;-70
2022/01/06 09:32:17;;;;;;;18.55;13.02;;;5.60;95.30;;;;;;6185106;23;20456;-67
2022/01/06 09:34:43;;;;;;;17.58;12.20;;;5.60;95.30;;;;;;6185081;23;20012;-68
2022/01/06 09:37:08;;;;;;;16.83;12.10;;;5.60;95.30;;;;;;6184976;23;20119;-67
2022/01/06 09:39:34;;;;;;;16.92;12.40;;;5.60;95.30;;;;;;6184989;23;20015;-67
2022/01/06 09:41:59;;;;;;;18.00;12.32;;;5.60;95.20;;;;;;6185081;23;20005;-67
2022/01/06 09:44:26;;;;;;;18.92;13.48;;;5.60;95.10;;;;;;6184799;23;20081;-68
2022/01/06 09:46:55;;;;;;;18.20;12.90;;;5.60;95.20;;;;;;6185016;23;20417;-66
2022/01/06 09:49:21;;;;;;;19.55;12.50;;;5.60;95.30;;;;;;6184778;23;19997;-67
2022/01/06 09:51:47;;;;;;;19.23;13.63;;;5.50;95.40;;;;;;6184685;23;20005;-68
2022/01/06 09:54:13;;;;;;;20.48;13.90;;;5.60;95.40;;;;;;6184836;23;20328;-68
2022/01/06 09:56:38;;;;;;;19.80;13.75;;;5.50;95.50;;;;;;6184447;23;20005;-67
2022/01/06 09:59:04;;;;;;;19.70;13.93;;;5.60;95.50;;;;;;6184643;23;20012;-67
2022/01/06 10:01:30;;;;;;;20.90;13.50;;;5.60;95.50;;;;;;6184895;23;20001;-66
2022/01/06 10:03:55;;;;;;;21.15;14.98;;;5.60;95.40;;;;;;6184663;23;20008;-67
2022/01/06 10:06:24;;;;;;;22.42;15.82;;;5.60;95.50;;;;;;6184586;23;20598;-65
2022/01/06 10:08:55;;;;;;;22.05;15.48;;;5.60;95.60;;;;;;6184852;23;20067;-66
2022/01/06 10:11:25;;;;;;;20.92;15.00;;;5.60;95.60;;;;;;6184662;23;20023;-66
2022/01/06 10:14:11;;;;;;;26.88;18.90;;;5.60;95.70;;;;;;6184714;23;20109;-66
2022/01/06 10:16:44;;;;;;;28.98;19.35;;;5.60;95.50;;;;;;6184291;23;20009;-67
2022/01/06 10:19:11;;;;;;;27.15;18.90;;;5.60;95.60;;;;;;6184638;23;20012;-66
2022/01/06 10:21:37;;;;;;;23.90;16.77;;;5.60;95.70;;;;;;6184699;23;20008;-66
2022/01/06 10:24:19;;;;;;;24.45;16.92;;;5.50;95.60;;;;;;6184546;23;20005;-65
2022/01/06 10:26:58;;;;;;;26.23;18.30;;;5.50;95.80;;;;;;6184570;23;20001;-67
2022/01/06 10:29:27;;;;;;;25.80;17.77;;;5.60;95.80;;;;;;6158369;23;20428;-66
2022/01/06 10:32:04;;;;;;;26.60;18.92;;;5.60;95.80;;;;;;6184689;23;20005;-67
2022/01/06 10:34:35;;;;;;;23.65;17.13;;;5.70;95.60;;;;;;6184182;23;20530;-65
2022/01/06 10:37:03;;;;;;;24.60;17.20;;;5.60;95.70;;;;;;6183729;23;20004;-66
2022/01/06 10:39:43;;;;;;;23.23;16.83;;;5.70;95.80;;;;;;6157902;23;20012;-66
2022/01/06 10:42:09;;;;;;;23.55;16.73;;;5.70;95.80;;;;;;6158004;23;20016;-66
2022/01/06 10:45:08;;;;;;;21.83;15.43;;;5.70;95.70;;;;;;6184084;23;20056;-66
2022/01/06 10:47:37;;;;;;;31.27;20.52;;;5.70;95.10;;;;;;6156651;23;20035;-66
2022/01/06 10:50:11;;;;;;;31.85;20.98;;;5.70;95.30;;;;;;6184123;23;20001;-65
2022/01/06 10:52:39;;;;;;;27.45;18.35;;;5.70;95.20;;;;;;6184382;23;19997;-65
2022/01/06 10:55:29;;;;;;;39.97;26.98;;;5.70;95.30;;;;;;6184218;23;20008;-66
2022/01/06 10:58:17;;;;;;;45.85;29.90;;;5.70;95.00;;;;;;6165981;23;20016;-65
2022/01/06 11:00:47;;;;;;;53.97;36.83;;;5.80;95.30;;;;;;6184164;23;20008;-66
2022/01/06 11:03:19;;;;;;;51.85;34.78;;;5.80;95.30;;;;;;6157844;23;20333;-65
2022/01/06 11:05:56;;;;;;;53.37;35.47;;;5.90;95.40;;;;;;6184080;23;20028;-65
2022/01/06 11:08:26;;;;;;;54.30;36.80;;;5.90;95.30;;;;;;6183882;23;20001;-66
2022/01/06 11:13:37;;;;;;;51.70;34.38;;;6.00;95.40;;;;;;6193819;23;20362;-65
2022/01/06 11:16:04;;;;;;;41.15;28.38;;;6.10;94.90;;;;;;6183944;23;20418;-66
2022/01/06 11:18:31;;;;;;;41.00;27.52;;;6.20;94.40;;;;;;6184053;23;20477;-65
2022/01/06 11:21:24;;;;;;;35.10;24.95;;;6.30;94.70;;;;;;6184052;23;20023;-65
2022/01/06 11:24:08;;;;;;;;;;;6.30;94.20;;;;;;6178761;23;20009;-65
2022/01/06 11:26:34;;;;;;;31.67;22.55;;;6.30;93.70;;;;;;6183612;23;19975;-66
2022/01/06 11:29:00;;;;;;;31.85;21.95;;;6.40;93.90;;;;;;6183871;23;20027;-66
2022/01/06 11:31:37;;;;;;;43.40;28.15;;;6.40;93.80;;;;;;6157304;23;20039;-67
2022/01/06 11:34:20;;;;;;;39.80;27.75;;;6.30;93.90;;;;;;6183609;23;20084;-66
2022/01/06 11:36:50;;;;;;;27.45;20.27;;;6.30;94.10;;;;;;6183879;23;20005;-68
2022/01/06 11:39:26;;;;;;;28.40;21.05;;;6.30;94.20;;;;;;6183905;23;20001;-65
2022/01/06 11:41:54;;;;;;;28.40;20.45;;;6.40;94.10;;;;;;6184447;23;20603;-67
2022/01/06 11:44:19;;;;;;;29.27;21.42;;;6.50;93.60;;;;;;6184002;23;20012;-67
2022/01/06 11:46:48;;;;;;;28.05;19.77;;;6.60;93.20;;;;;;6183719;23;20874;-65
2022/01/06 11:49:14;;;;;;;26.23;19.38;;;6.60;92.90;;;;;;6157834;23;20761;-66
2022/01/06 11:51:41;;;;;;;25.58;18.35;;;6.60;92.80;;;;;;6184097;23;20812;-65
2022/01/06 11:54:18;;;;;;;28.42;19.83;;;6.50;93.00;;;;;;6183922;23;20694;-65
2022/01/06 11:56:51;;;;;;;26.67;19.35;;;6.50;92.80;;;;;;6183923;23;20005;-66
2022/01/06 11:59:29;;;;;;;28.73;19.90;;;6.50;93.20;;;;;;6183574;23;20075;-66
2022/01/06 12:01:55;;;;;;;25.50;18.13;;;6.40;92.80;;;;;;6183580;23;20001;-65
2022/01/06 12:04:23;;;;;;;24.98;17.73;;;6.40;92.60;;;;;;6183329;23;20063;-66
2022/01/06 12:06:49;;;;;;;27.77;19.42;;;6.40;92.70;;;;;;6183360;23;20421;-66
2022/01/06 12:09:20;;;;;;;24.88;18.60;;;6.30;92.80;;;;;;6183686;23;20073;-66
2022/01/06 12:11:46;;;;;;;24.80;17.45;;;6.20;93.20;;;;;;6183371;23;19998;-66
2022/01/06 12:14:24;;;;;;;30.30;21.95;;;6.20;93.50;;;;;;6183552;23;20038;-66
2022/01/06 12:16:49;;;;;;;29.63;20.92;;;6.30;93.60;;;;;;6183600;23;20064;-66
2022/01/06 12:19:18;;;;;;;31.75;23.13;;;6.30;93.80;;;;;;6183551;23;20031;-65
2022/01/06 12:21:44;;;;;;;28.17;20.13;;;6.30;93.50;;;;;;6183315;23;20012;-65
2022/01/06 12:24:12;;;;;;;24.20;17.65;;;6.30;93.50;;;;;;6183644;23;20009;-66
2022/01/06 12:26:39;;;;;;;23.30;16.40;;;6.30;93.50;;;;;;6183461;23;20031;-66
2022/01/06 12:29:19;;;;;;;21.73;15.93;;;6.30;93.40;;;;;;6183673;23;20076;-64
2022/01/06 12:31:46;;;;;;;23.05;15.95;;;6.30;93.40;;;;;;6157143;23;20421;-67
2022/01/06 12:34:13;;;;;;;22.65;16.42;;;6.40;93.20;;;;;;6183328;23;20025;-65
2022/01/06 12:36:43;;;;;;;24.85;17.02;;;6.40;93.10;;;;;;6183186;23;20028;-65
2022/01/06 12:39:09;;;;;;;21.05;15.25;;;6.30;92.80;;;;;;6183434;23;20025;-65
2022/01/06 12:41:35;;;;;;;21.73;15.18;;;6.30;92.90;;;;;;6156966;23;20012;-65
2022/01/06 12:44:02;;;;;;;23.35;16.55;;;6.30;93.00;;;;;;6183351;23;20088;-66
2022/01/06 12:46:41;;;;;;;22.63;15.35;;;6.20;93.00;;;;;;6157351;23;20369;-66
2022/01/06 12:49:08;;;;;;;19.85;13.90;;;6.30;93.00;;;;;;6183491;23;20047;-66